Mount Baw Baw, Australia
Current Conditions -  °F | °C
As of 11:00 AM on Tuesday 21 Oct 2014 (Local Time) from YMEN Reporting Station
Clear Clear  
Wind Chill: 70°   Ceiling: Unl
Heat Index: 70°   Visibility: 6mi
Dew Point: 50°   Wind: 18mph
Humidity: 49%   Direction: 20°NNE
Pressure: 30.3"   Gusts: NA
Location:  37.83°S, 146.27°E
Report Text: YMEN 210000Z AUTO 02016KT 9999 // NCD 21/10 Q1026
Loading
Personal Weather Stations






























Interactive Weather Map
Tropical Storm Tracking
New forecast layout! Learn more

10-Day Weather Forecast

Advertisements
Track Severe Weather on mobile